sensor_id;sensor_type;location;lat;lon;timestamp;pressure;altitude;pressure_sealevel;temperature
6454;BMP180;3260;52.438;13.502;2023-04-19T04:02:31;101840.00;;;4.60
6454;BMP180;3260;52.438;13.502;2023-04-19T04:05:00;101833.00;;;4.70
6454;BMP180;3260;52.438;13.502;2023-04-19T04:07:28;101842.00;;;4.90
6454;BMP180;3260;52.438;13.502;2023-04-19T04:09:57;101833.00;;;5.00
6454;BMP180;3260;52.438;13.502;2023-04-19T04:12:25;101830.00;;;5.10
6454;BMP180;3260;52.438;13.502;2023-04-19T04:14:53;101838.00;;;4.80
6454;BMP180;3260;52.438;13.502;2023-04-19T04:17:21;101822.00;;;5.00
6454;BMP180;3260;52.438;13.502;2023-04-19T04:19:51;101833.00;;;4.80
6454;BMP180;3260;52.438;13.502;2023-04-19T04:22:20;101830.00;;;5.00
6454;BMP180;3260;52.438;13.502;2023-04-19T04:24:48;101830.00;;;5.00
6454;BMP180;3260;52.438;13.502;2023-04-19T04:27:16;101828.00;;;5.00
6454;BMP180;3260;52.438;13.502;2023-04-19T04:29:47;101830.00;;;5.00
6454;BMP180;3260;52.438;13.502;2023-04-19T04:32:16;101834.00;;;5.10
6454;BMP180;3260;52.438;13.502;2023-04-19T04:34:50;101831.00;;;5.30
6454;BMP180;3260;52.438;13.502;2023-04-19T04:37:18;101823.00;;;5.40
6454;BMP180;3260;52.438;13.502;2023-04-19T04:39:47;101823.00;;;5.30
6454;BMP180;3260;52.438;13.502;2023-04-19T04:42:15;101823.00;;;5.20
6454;BMP180;3260;52.438;13.502;2023-04-19T04:44:43;101820.00;;;5.50
6454;BMP180;3260;52.438;13.502;2023-04-19T04:47:13;101818.00;;;5.70
6454;BMP180;3260;52.438;13.502;2023-04-19T04:49:41;101810.00;;;5.70
6454;BMP180;3260;52.438;13.502;2023-04-19T04:52:11;101794.00;;;5.80
6454;BMP180;3260;52.438;13.502;2023-04-19T04:54:39;101804.00;;;5.90
6454;BMP180;3260;52.438;13.502;2023-04-19T04:57:07;101811.00;;;5.80
6454;BMP180;3260;52.438;13.502;2023-04-19T04:59:36;101812.00;;;5.70
6454;BMP180;3260;52.438;13.502;2023-04-19T05:02:04;101807.00;;;5.80
6454;BMP180;3260;52.438;13.502;2023-04-19T05:04:32;101813.00;;;5.90
6454;BMP180;3260;52.438;13.502;2023-04-19T05:07:00;101813.00;;;6.00
6454;BMP180;3260;52.438;13.502;2023-04-19T05:09:30;101800.00;;;5.70
6454;BMP180;3260;52.438;13.502;2023-04-19T05:11:58;101796.00;;;6.00
6454;BMP180;3260;52.438;13.502;2023-04-19T05:14:27;101796.00;;;6.10
6454;BMP180;3260;52.438;13.502;2023-04-19T05:16:55;101792.00;;;6.10
6454;BMP180;3260;52.438;13.502;2023-04-19T05:19:24;101792.00;;;6.20
6454;BMP180;3260;52.438;13.502;2023-04-19T05:21:52;101786.00;;;6.20
6454;BMP180;3260;52.438;13.502;2023-04-19T05:24:20;101790.00;;;6.50
6454;BMP180;3260;52.438;13.502;2023-04-19T05:26:50;101784.00;;;6.30
6454;BMP180;3260;52.438;13.502;2023-04-19T05:29:18;101795.00;;;6.40
6454;BMP180;3260;52.438;13.502;2023-04-19T05:31:46;101788.00;;;6.30
6454;BMP180;3260;52.438;13.502;2023-04-19T05:34:14;101769.00;;;6.60
6454;BMP180;3260;52.438;13.502;2023-04-19T05:36:47;101783.00;;;6.30
6454;BMP180;3260;52.438;13.502;2023-04-19T05:39:15;101774.00;;;6.50
6454;BMP180;3260;52.438;13.502;2023-04-19T05:41:43;101782.00;;;6.60
6454;BMP180;3260;52.438;13.502;2023-04-19T05:44:14;101784.00;;;6.80
6454;BMP180;3260;52.438;13.502;2023-04-19T05:46:42;101777.00;;;6.70
6454;BMP180;3260;52.438;13.502;2023-04-19T05:49:11;101777.00;;;6.70
6454;BMP180;3260;52.438;13.502;2023-04-19T05:51:39;101774.00;;;6.60
6454;BMP180;3260;52.438;13.502;2023-04-19T05:54:08;101777.00;;;7.50
6454;BMP180;3260;52.438;13.502;2023-04-19T05:56:38;101781.00;;;7.00
6454;BMP180;3260;52.438;13.502;2023-04-19T05:59:06;101776.00;;;7.00
6454;BMP180;3260;52.438;13.502;2023-04-19T06:01:38;101774.00;;;6.90
6454;BMP180;3260;52.438;13.502;2023-04-19T06:04:06;101777.00;;;7.10
6454;BMP180;3260;52.438;13.502;2023-04-19T06:06:35;101772.00;;;7.30
6454;BMP180;3260;52.438;13.502;2023-04-19T06:09:04;101774.00;;;7.40
6454;BMP180;3260;52.438;13.502;2023-04-19T06:11:33;101765.00;;;7.30
6454;BMP180;3260;52.438;13.502;2023-04-19T06:14:16;101766.00;;;7.20
6454;BMP180;3260;52.438;13.502;2023-04-19T06:16:46;101767.00;;;7.20
6454;BMP180;3260;52.438;13.502;2023-04-19T06:19:15;101762.00;;;7.40
6454;BMP180;3260;52.438;13.502;2023-04-19T06:21:43;101765.00;;;7.80
6454;BMP180;3260;52.438;13.502;2023-04-19T06:24:12;101763.00;;;7.70
6454;BMP180;3260;52.438;13.502;2023-04-19T06:26:40;101768.00;;;7.80
6454;BMP180;3260;52.438;13.502;2023-04-19T06:29:09;101767.00;;;7.80
6454;BMP180;3260;52.438;13.502;2023-04-19T06:31:38;101770.00;;;7.80
6454;BMP180;3260;52.438;13.502;2023-04-19T06:34:07;101748.00;;;7.90
6454;BMP180;3260;52.438;13.502;2023-04-19T06:36:37;101752.00;;;8.10
6454;BMP180;3260;52.438;13.502;2023-04-19T06:39:05;101757.00;;;8.30
6454;BMP180;3260;52.438;13.502;2023-04-19T06:41:33;101747.00;;;8.50
6454;BMP180;3260;52.438;13.502;2023-04-19T06:44:01;101711.00;;;8.20
6454;BMP180;3260;52.438;13.502;2023-04-19T06:46:30;101743.00;;;8.50
6454;BMP180;3260;52.438;13.502;2023-04-19T06:48:58;101744.00;;;8.50
6454;BMP180;3260;52.438;13.502;2023-04-19T06:51:28;101752.00;;;8.60
6454;BMP180;3260;52.438;13.502;2023-04-19T06:53:56;101746.00;;;8.60
6454;BMP180;3260;52.438;13.502;2023-04-19T06:56:42;101739.00;;;8.60
6454;BMP180;3260;52.438;13.502;2023-04-19T06:59:13;101742.00;;;8.70
6454;BMP180;3260;52.438;13.502;2023-04-19T07:01:42;101739.00;;;8.80
6454;BMP180;3260;52.438;13.502;2023-04-19T07:04:12;101731.00;;;8.80
6454;BMP180;3260;52.438;13.502;2023-04-19T07:06:43;101736.00;;;9.20
6454;BMP180;3260;52.438;13.502;2023-04-19T07:09:11;101731.00;;;9.40
6454;BMP180;3260;52.438;13.502;2023-04-19T07:11:39;101729.00;;;9.90
6454;BMP180;3260;52.438;13.502;2023-04-19T07:14:08;101721.00;;;10.10
6454;BMP180;3260;52.438;13.502;2023-04-19T07:16:36;101723.00;;;10.00
6454;BMP180;3260;52.438;13.502;2023-04-19T07:19:04;101708.00;;;10.00
6454;BMP180;3260;52.438;13.502;2023-04-19T07:21:33;101713.00;;;9.90
6454;BMP180;3260;52.438;13.502;2023-04-19T07:24:03;101713.00;;;10.10
6454;BMP180;3260;52.438;13.502;2023-04-19T07:26:32;101709.00;;;10.30
6454;BMP180;3260;52.438;13.502;2023-04-19T07:29:01;101703.00;;;10.30
6454;BMP180;3260;52.438;13.502;2023-04-19T07:31:29;101708.00;;;10.30
6454;BMP180;3260;52.438;13.502;2023-04-19T07:33:58;101703.00;;;10.20
6454;BMP180;3260;52.438;13.502;2023-04-19T07:36:26;101703.00;;;10.50
6454;BMP180;3260;52.438;13.502;2023-04-19T07:38:55;101693.00;;;10.40
6454;BMP180;3260;52.438;13.502;2023-04-19T07:41:24;101698.00;;;10.70
6454;BMP180;3260;52.438;13.502;2023-04-19T07:43:53;101700.00;;;10.60
6454;BMP180;3260;52.438;13.502;2023-04-19T07:46:21;101699.00;;;10.30
6454;BMP180;3260;52.438;13.502;2023-04-19T07:48:49;101699.00;;;10.50
6454;BMP180;3260;52.438;13.502;2023-04-19T07:51:18;101698.00;;;10.70
6454;BMP180;3260;52.438;13.502;2023-04-19T07:53:46;101699.00;;;11.40
6454;BMP180;3260;52.438;13.502;2023-04-19T07:56:15;101698.00;;;11.30
6454;BMP180;3260;52.438;13.502;2023-04-19T07:58:44;101690.00;;;11.50
6454;BMP180;3260;52.438;13.502;2023-04-19T08:01:28;101682.00;;;11.70
6454;BMP180;3260;52.438;13.502;2023-04-19T08:03:58;101694.00;;;11.70
6454;BMP180;3260;52.438;13.502;2023-04-19T08:06:28;101676.00;;;11.60
6454;BMP180;3260;52.438;13.502;2023-04-19T08:08:56;101679.00;;;11.80
6454;BMP180;3260;52.438;13.502;2023-04-19T08:11:25;101682.00;;;11.80
6454;BMP180;3260;52.438;13.502;2023-04-19T08:13:54;101679.00;;;11.90
6454;BMP180;3260;52.438;13.502;2023-04-19T08:16:37;101677.00;;;11.60
6454;BMP180;3260;52.438;13.502;2023-04-19T08:19:09;101676.00;;;11.50
6454;BMP180;3260;52.438;13.502;2023-04-19T08:21:37;101675.00;;;11.70
6454;BMP180;3260;52.438;13.502;2023-04-19T08:24:08;101675.00;;;11.60
6454;BMP180;3260;52.438;13.502;2023-04-19T08:26:36;101676.00;;;11.70
6454;BMP180;3260;52.438;13.502;2023-04-19T08:29:07;101683.00;;;12.10
6454;BMP180;3260;52.438;13.502;2023-04-19T08:31:35;101680.00;;;12.40
6454;BMP180;3260;52.438;13.502;2023-04-19T08:34:04;101676.00;;;12.40
6454;BMP180;3260;52.438;13.502;2023-04-19T08:36:32;101686.00;;;12.70
6454;BMP180;3260;52.438;13.502;2023-04-19T08:39:09;101680.00;;;13.00
6454;BMP180;3260;52.438;13.502;2023-04-19T08:41:51;101666.00;;;13.10
6454;BMP180;3260;52.438;13.502;2023-04-19T08:44:34;101667.00;;;13.40
6454;BMP180;3260;52.438;13.502;2023-04-19T08:47:20;101667.00;;;13.50
6454;BMP180;3260;52.438;13.502;2023-04-19T08:50:00;101652.00;;;13.20
6454;BMP180;3260;52.438;13.502;2023-04-19T08:52:34;101662.00;;;13.10
6454;BMP180;3260;52.438;13.502;2023-04-19T08:55:20;101654.00;;;12.90
6454;BMP180;3260;52.438;13.502;2023-04-19T08:57:49;101646.00;;;13.00
6454;BMP180;3260;52.438;13.502;2023-04-19T09:00:20;101643.00;;;12.90
6454;BMP180;3260;52.438;13.502;2023-04-19T09:02:50;101609.00;;;12.90
6454;BMP180;3260;52.438;13.502;2023-04-19T09:05:21;101633.00;;;13.40
6454;BMP180;3260;52.438;13.502;2023-04-19T09:07:50;101643.00;;;13.80
6454;BMP180;3260;52.438;13.502;2023-04-19T09:10:19;101637.00;;;14.00
6454;BMP180;3260;52.438;13.502;2023-04-19T09:13:02;101634.00;;;14.10
6454;BMP180;3260;52.438;13.502;2023-04-19T09:15:40;101628.00;;;13.80
6454;BMP180;3260;52.438;13.502;2023-04-19T09:18:12;101614.00;;;13.70
6454;BMP180;3260;52.438;13.502;2023-04-19T09:20:42;101615.00;;;13.60
6454;BMP180;3260;52.438;13.502;2023-04-19T09:23:14;101630.00;;;13.50
6454;BMP180;3260;52.438;13.502;2023-04-19T09:25:53;101625.00;;;13.60
6454;BMP180;3260;52.438;13.502;2023-04-19T09:28:55;101628.00;;;13.90
6454;BMP180;3260;52.438;13.502;2023-04-19T09:31:27;101614.00;;;14.50
6454;BMP180;3260;52.438;13.502;2023-04-19T09:34:17;101614.00;;;14.60
6454;BMP180;3260;52.438;13.502;2023-04-19T09:36:48;101618.00;;;15.60
6454;BMP180;3260;52.438;13.502;2023-04-19T09:39:31;101622.00;;;16.10
6454;BMP180;3260;52.438;13.502;2023-04-19T09:42:02;101623.00;;;15.80
6454;BMP180;3260;52.438;13.502;2023-04-19T09:44:30;101614.00;;;15.80
6454;BMP180;3260;52.438;13.502;2023-04-19T09:47:24;101612.00;;;15.60
6454;BMP180;3260;52.438;13.502;2023-04-19T09:50:07;101599.00;;;15.30
6454;BMP180;3260;52.438;13.502;2023-04-19T09:52:51;101619.00;;;15.50
6454;BMP180;3260;52.438;13.502;2023-04-19T09:55:19;101599.00;;;15.90
6454;BMP180;3260;52.438;13.502;2023-04-19T09:57:55;101603.00;;;16.50
6454;BMP180;3260;52.438;13.502;2023-04-19T10:00:24;101598.00;;;16.50
6454;BMP180;3260;52.438;13.502;2023-04-19T10:02:58;101599.00;;;16.70
6454;BMP180;3260;52.438;13.502;2023-04-19T10:05:27;101604.00;;;17.00
6454;BMP180;3260;52.438;13.502;2023-04-19T10:07:56;101593.00;;;17.50
6454;BMP180;3260;52.438;13.502;2023-04-19T10:10:28;101604.00;;;17.80
6454;BMP180;3260;52.438;13.502;2023-04-19T10:13:03;101599.00;;;17.30
6454;BMP180;3260;52.438;13.502;2023-04-19T10:15:36;101600.00;;;17.10
6454;BMP180;3260;52.438;13.502;2023-04-19T10:18:09;101580.00;;;17.90
6454;BMP180;3260;52.438;13.502;2023-04-19T10:20:46;101589.00;;;17.80
6454;BMP180;3260;52.438;13.502;2023-04-19T10:23:17;101587.00;;;17.90
6454;BMP180;3260;52.438;13.502;2023-04-19T10:25:47;101587.00;;;18.40
6454;BMP180;3260;52.438;13.502;2023-04-19T10:28:15;101591.00;;;18.60
6454;BMP180;3260;52.438;13.502;2023-04-19T10:31:02;101598.00;;;19.40
6454;BMP180;3260;52.438;13.502;2023-04-19T10:33:35;101580.00;;;19.00
6454;BMP180;3260;52.438;13.502;2023-04-19T10:41:22;101572.00;;;18.80
6454;BMP180;3260;52.438;13.502;2023-04-19T10:44:09;101572.00;;;18.70
6454;BMP180;3260;52.438;13.502;2023-04-19T10:46:39;101574.00;;;19.00
6454;BMP180;3260;52.438;13.502;2023-04-19T10:49:09;101572.00;;;18.10
6454;BMP180;3260;52.438;13.502;2023-04-19T10:51:41;101570.00;;;17.60
6454;BMP180;3260;52.438;13.502;2023-04-19T10:54:28;101575.00;;;17.70
6454;BMP180;3260;52.438;13.502;2023-04-19T10:57:02;101572.00;;;17.40
6454;BMP180;3260;52.438;13.502;2023-04-19T10:59:33;101565.00;;;17.40
6454;BMP180;3260;52.438;13.502;2023-04-19T11:02:04;101571.00;;;17.90
6454;BMP180;3260;52.438;13.502;2023-04-19T11:05:00;101563.00;;;18.70
6454;BMP180;3260;52.438;13.502;2023-04-19T11:07:44;101564.00;;;18.60
6454;BMP180;3260;52.438;13.502;2023-04-19T11:10:14;101573.00;;;19.00
6454;BMP180;3260;52.438;13.502;2023-04-19T11:12:55;101567.00;;;18.90
6454;BMP180;3260;52.438;13.502;2023-04-19T11:15:24;101564.00;;;19.10
6454;BMP180;3260;52.438;13.502;2023-04-19T11:17:52;101565.00;;;19.30
6454;BMP180;3260;52.438;13.502;2023-04-19T11:20:42;101553.00;;;19.80
6454;BMP180;3260;52.438;13.502;2023-04-19T11:23:15;101548.00;;;20.50
6454;BMP180;3260;52.438;13.502;2023-04-19T11:25:44;101527.00;;;19.80
6454;BMP180;3260;52.438;13.502;2023-04-19T11:28:17;101536.00;;;20.50
6454;BMP180;3260;52.438;13.502;2023-04-19T11:30:49;101536.00;;;20.60
6454;BMP180;3260;52.438;13.502;2023-04-19T11:33:20;101540.00;;;20.60
6454;BMP180;3260;52.438;13.502;2023-04-19T11:35:53;101529.00;;;20.70
6454;BMP180;3260;52.438;13.502;2023-04-19T11:38:26;101540.00;;;20.20
6454;BMP180;3260;52.438;13.502;2023-04-19T11:40:59;101538.00;;;20.10
6454;BMP180;3260;52.438;13.502;2023-04-19T11:43:34;101527.00;;;18.40
6454;BMP180;3260;52.438;13.502;2023-04-19T11:46:09;101536.00;;;18.00
6454;BMP180;3260;52.438;13.502;2023-04-19T11:48:48;101525.00;;;17.70
6454;BMP180;3260;52.438;13.502;2023-04-19T11:51:20;101520.00;;;17.60
6454;BMP180;3260;52.438;13.502;2023-04-19T11:53:50;101511.00;;;16.90
6454;BMP180;3260;52.438;13.502;2023-04-19T11:56:21;101519.00;;;16.60
6454;BMP180;3260;52.438;13.502;2023-04-19T11:58:56;101496.00;;;16.60
6454;BMP180;3260;52.438;13.502;2023-04-19T12:01:27;101515.00;;;17.00
6454;BMP180;3260;52.438;13.502;2023-04-19T12:03:57;101515.00;;;18.20
6454;BMP180;3260;52.438;13.502;2023-04-19T12:06:29;101515.00;;;18.40
6454;BMP180;3260;52.438;13.502;2023-04-19T12:08:59;101514.00;;;19.10
6454;BMP180;3260;52.438;13.502;2023-04-19T12:11:44;101509.00;;;18.80
6454;BMP180;3260;52.438;13.502;2023-04-19T12:14:17;101513.00;;;18.60
6454;BMP180;3260;52.438;13.502;2023-04-19T12:17:04;101515.00;;;19.10
6454;BMP180;3260;52.438;13.502;2023-04-19T12:19:36;101521.00;;;19.70
6454;BMP180;3260;52.438;13.502;2023-04-19T12:22:11;101519.00;;;18.90
6454;BMP180;3260;52.438;13.502;2023-04-19T12:24:41;101513.00;;;18.40
6454;BMP180;3260;52.438;13.502;2023-04-19T12:27:10;101508.00;;;17.90
6454;BMP180;3260;52.438;13.502;2023-04-19T12:29:39;101507.00;;;17.80
6454;BMP180;3260;52.438;13.502;2023-04-19T12:32:09;101506.00;;;18.70
6454;BMP180;3260;52.438;13.502;2023-04-19T12:34:39;101514.00;;;18.90
6454;BMP180;3260;52.438;13.502;2023-04-19T12:37:09;101500.00;;;19.30
6454;BMP180;3260;52.438;13.502;2023-04-19T12:39:38;101490.00;;;19.00
6454;BMP180;3260;52.438;13.502;2023-04-19T12:42:07;101490.00;;;19.20
6454;BMP180;3260;52.438;13.502;2023-04-19T12:44:37;101488.00;;;19.80
6454;BMP180;3260;52.438;13.502;2023-04-19T12:47:05;101479.00;;;19.50
6454;BMP180;3260;52.438;13.502;2023-04-19T12:49:35;101469.00;;;20.00
6454;BMP180;3260;52.438;13.502;2023-04-19T12:52:05;101470.00;;;19.70
6454;BMP180;3260;52.438;13.502;2023-04-19T12:54:36;101458.00;;;19.80
6454;BMP180;3260;52.438;13.502;2023-04-19T12:57:06;101460.00;;;19.50
6454;BMP180;3260;52.438;13.502;2023-04-19T12:59:37;101466.00;;;19.20
6454;BMP180;3260;52.438;13.502;2023-04-19T13:02:06;101469.00;;;18.40
6454;BMP180;3260;52.438;13.502;2023-04-19T13:04:35;101455.00;;;18.10
6454;BMP180;3260;52.438;13.502;2023-04-19T13:07:03;101453.00;;;17.70
6454;BMP180;3260;52.438;13.502;2023-04-19T13:09:32;101456.00;;;18.70
6454;BMP180;3260;52.438;13.502;2023-04-19T13:12:02;101443.00;;;18.00
6454;BMP180;3260;52.438;13.502;2023-04-19T13:14:31;101444.00;;;17.90
6454;BMP180;3260;52.438;13.502;2023-04-19T13:17:00;101442.00;;;18.20
6454;BMP180;3260;52.438;13.502;2023-04-19T13:19:28;101438.00;;;18.50
6454;BMP180;3260;52.438;13.502;2023-04-19T13:21:59;101430.00;;;18.70
6454;BMP180;3260;52.438;13.502;2023-04-19T13:24:28;101425.00;;;18.10
6454;BMP180;3260;52.438;13.502;2023-04-19T13:26:57;101417.00;;;17.40
6454;BMP180;3260;52.438;13.502;2023-04-19T13:29:26;101419.00;;;17.20
6454;BMP180;3260;52.438;13.502;2023-04-19T13:31:55;101413.00;;;17.10
6454;BMP180;3260;52.438;13.502;2023-04-19T13:34:24;101410.00;;;16.90
6454;BMP180;3260;52.438;13.502;2023-04-19T13:36:52;101408.00;;;16.20
6454;BMP180;3260;52.438;13.502;2023-04-19T13:39:20;101406.00;;;15.70
6454;BMP180;3260;52.438;13.502;2023-04-19T13:41:50;101405.00;;;15.70
6454;BMP180;3260;52.438;13.502;2023-04-19T13:44:19;101405.00;;;15.80
6454;BMP180;3260;52.438;13.502;2023-04-19T13:46:51;101407.00;;;16.00
6454;BMP180;3260;52.438;13.502;2023-04-19T13:49:19;101400.00;;;15.40
6454;BMP180;3260;52.438;13.502;2023-04-19T13:51:48;101400.00;;;15.00
6454;BMP180;3260;52.438;13.502;2023-04-19T13:54:17;101398.00;;;14.90
6454;BMP180;3260;52.438;13.502;2023-04-19T13:56:48;101395.00;;;14.70
6454;BMP180;3260;52.438;13.502;2023-04-19T13:59:18;101405.00;;;14.80
6454;BMP180;3260;52.438;13.502;2023-04-19T14:01:49;101405.00;;;14.30
6454;BMP180;3260;52.438;13.502;2023-04-19T14:04:17;101416.00;;;13.70
6454;BMP180;3260;52.438;13.502;2023-04-19T14:06:47;101422.00;;;13.70
6454;BMP180;3260;52.438;13.502;2023-04-19T14:09:16;101418.00;;;13.70
6454;BMP180;3260;52.438;13.502;2023-04-19T14:11:45;101409.00;;;14.10
6454;BMP180;3260;52.438;13.502;2023-04-19T14:14:15;101411.00;;;14.30
6454;BMP180;3260;52.438;13.502;2023-04-19T14:16:45;101397.00;;;13.80
6454;BMP180;3260;52.438;13.502;2023-04-19T14:19:15;101393.00;;;14.00
6454;BMP180;3260;52.438;13.502;2023-04-19T14:21:43;101394.00;;;14.40
6454;BMP180;3260;52.438;13.502;2023-04-19T14:24:12;101398.00;;;14.20
6454;BMP180;3260;52.438;13.502;2023-04-19T14:26:41;101394.00;;;14.50
6454;BMP180;3260;52.438;13.502;2023-04-19T14:29:09;101397.00;;;14.30
6454;BMP180;3260;52.438;13.502;2023-04-19T14:31:38;101380.00;;;14.30
6454;BMP180;3260;52.438;13.502;2023-04-19T14:34:08;101376.00;;;14.50
6454;BMP180;3260;52.438;13.502;2023-04-19T14:36:37;101357.00;;;14.60
6454;BMP180;3260;52.438;13.502;2023-04-19T14:39:06;101373.00;;;14.50
6454;BMP180;3260;52.438;13.502;2023-04-19T14:41:35;101360.00;;;14.60
6454;BMP180;3260;52.438;13.502;2023-04-19T14:44:03;101356.00;;;13.90
6454;BMP180;3260;52.438;13.502;2023-04-19T14:46:32;101344.00;;;14.30
6454;BMP180;3260;52.438;13.502;2023-04-19T14:49:01;101349.00;;;13.40
6454;BMP180;3260;52.438;13.502;2023-04-19T14:51:32;101352.00;;;14.10
6454;BMP180;3260;52.438;13.502;2023-04-19T14:54:02;101337.00;;;14.30
6454;BMP180;3260;52.438;13.502;2023-04-19T14:56:30;101339.00;;;13.40
6454;BMP180;3260;52.438;13.502;2023-04-19T14:58:59;101345.00;;;13.60
6454;BMP180;3260;52.438;13.502;2023-04-19T15:01:28;101334.00;;;13.40
6454;BMP180;3260;52.438;13.502;2023-04-19T15:03:56;101325.00;;;13.10
6454;BMP180;3260;52.438;13.502;2023-04-19T15:06:25;101344.00;;;13.00
6454;BMP180;3260;52.438;13.502;2023-04-19T15:08:54;101345.00;;;12.30
6454;BMP180;3260;52.438;13.502;2023-04-19T15:11:24;101342.00;;;12.20
6454;BMP180;3260;52.438;13.502;2023-04-19T15:13:52;101346.00;;;12.00
6454;BMP180;3260;52.438;13.502;2023-04-19T15:16:21;101355.00;;;11.90
6454;BMP180;3260;52.438;13.502;2023-04-19T15:18:51;101351.00;;;11.70
6454;BMP180;3260;52.438;13.502;2023-04-19T15:21:20;101355.00;;;11.10
6454;BMP180;3260;52.438;13.502;2023-04-19T15:23:51;101358.00;;;11.20
6454;BMP180;3260;52.438;13.502;2023-04-19T15:26:19;101366.00;;;10.80
6454;BMP180;3260;52.438;13.502;2023-04-19T15:28:53;101377.00;;;10.60
6454;BMP180;3260;52.438;13.502;2023-04-19T15:31:23;101378.00;;;10.00
6454;BMP180;3260;52.438;13.502;2023-04-19T15:33:52;101384.00;;;9.60
6454;BMP180;3260;52.438;13.502;2023-04-19T15:36:20;101381.00;;;9.50
6454;BMP180;3260;52.438;13.502;2023-04-19T15:38:49;101391.00;;;9.50
6454;BMP180;3260;52.438;13.502;2023-04-19T15:41:18;101390.00;;;9.10
6454;BMP180;3260;52.438;13.502;2023-04-19T15:43:46;101391.00;;;8.70
6454;BMP180;3260;52.438;13.502;2023-04-19T15:46:17;101384.00;;;8.90
6454;BMP180;3260;52.438;13.502;2023-04-19T15:48:45;101388.00;;;8.50
6454;BMP180;3260;52.438;13.502;2023-04-19T15:51:15;101389.00;;;8.30
6454;BMP180;3260;52.438;13.502;2023-04-19T15:53:43;101379.00;;;8.40
6454;BMP180;3260;52.438;13.502;2023-04-19T15:56:12;101389.00;;;8.60
6454;BMP180;3260;52.438;13.502;2023-04-19T15:58:41;101383.00;;;8.60
6454;BMP180;3260;52.438;13.502;2023-04-19T16:01:11;101386.00;;;8.30
6454;BMP180;3260;52.438;13.502;2023-04-19T16:03:41;101389.00;;;8.00
6454;BMP180;3260;52.438;13.502;2023-04-19T16:06:10;101385.00;;;8.30
6454;BMP180;3260;52.438;13.502;2023-04-19T16:08:38;101374.00;;;8.20
6454;BMP180;3260;52.438;13.502;2023-04-19T16:11:07;101376.00;;;8.40
6454;BMP180;3260;52.438;13.502;2023-04-19T16:13:36;101369.00;;;8.50
6454;BMP180;3260;52.438;13.502;2023-04-19T16:16:05;101364.00;;;8.80
6454;BMP180;3260;52.438;13.502;2023-04-19T16:18:33;101369.00;;;8.50
6454;BMP180;3260;52.438;13.502;2023-04-19T16:21:03;101365.00;;;8.20
6454;BMP180;3260;52.438;13.502;2023-04-19T16:23:32;101350.00;;;8.20
6454;BMP180;3260;52.438;13.502;2023-04-19T16:26:01;101357.00;;;8.30
6454;BMP180;3260;52.438;13.502;2023-04-19T16:28:29;101349.00;;;8.60
6454;BMP180;3260;52.438;13.502;2023-04-19T16:30:58;101343.00;;;9.00
6454;BMP180;3260;52.438;13.502;2023-04-19T16:33:26;101342.00;;;8.80
6454;BMP180;3260;52.438;13.502;2023-04-19T16:35:55;101351.00;;;8.90
6454;BMP180;3260;52.438;13.502;2023-04-19T16:38:25;101347.00;;;8.60
6454;BMP180;3260;52.438;13.502;2023-04-19T16:40:53;101337.00;;;9.10
6454;BMP180;3260;52.438;13.502;2023-04-19T16:43:22;101340.00;;;9.20
6454;BMP180;3260;52.438;13.502;2023-04-19T16:45:50;101335.00;;;9.40
6454;BMP180;3260;52.438;13.502;2023-04-19T16:48:19;101337.00;;;9.30
6454;BMP180;3260;52.438;13.502;2023-04-19T16:50:48;101324.00;;;9.40
6454;BMP180;3260;52.438;13.502;2023-04-19T16:53:17;101327.00;;;9.30
6454;BMP180;3260;52.438;13.502;2023-04-19T16:55:47;101327.00;;;8.70
6454;BMP180;3260;52.438;13.502;2023-04-19T16:58:15;101317.00;;;8.80
6454;BMP180;3260;52.438;13.502;2023-04-19T17:00:44;101327.00;;;8.80
6454;BMP180;3260;52.438;13.502;2023-04-19T17:03:12;101330.00;;;9.00
6454;BMP180;3260;52.438;13.502;2023-04-19T17:05:41;101317.00;;;8.80
6454;BMP180;3260;52.438;13.502;2023-04-19T17:08:10;101313.00;;;8.70
6454;BMP180;3260;52.438;13.502;2023-04-19T17:10:38;101321.00;;;8.70
6454;BMP180;3260;52.438;13.502;2023-04-19T17:13:08;101314.00;;;8.90
6454;BMP180;3260;52.438;13.502;2023-04-19T17:15:37;101316.00;;;8.90
6454;BMP180;3260;52.438;13.502;2023-04-19T17:18:06;101307.00;;;8.70
6454;BMP180;3260;52.438;13.502;2023-04-19T17:20:34;101306.00;;;8.70
6454;BMP180;3260;52.438;13.502;2023-04-19T17:23:03;101318.00;;;8.90
6454;BMP180;3260;52.438;13.502;2023-04-19T17:25:32;101314.00;;;8.70
6454;BMP180;3260;52.438;13.502;2023-04-19T17:28:01;101311.00;;;8.40
6454;BMP180;3260;52.438;13.502;2023-04-19T17:30:32;101310.00;;;8.80
6454;BMP180;3260;52.438;13.502;2023-04-19T17:33:00;101314.00;;;8.60
6454;BMP180;3260;52.438;13.502;2023-04-19T17:35:29;101318.00;;;8.50
6454;BMP180;3260;52.438;13.502;2023-04-19T17:37:58;101319.00;;;8.90
6454;BMP180;3260;52.438;13.502;2023-04-19T17:40:27;101318.00;;;8.40
6454;BMP180;3260;52.438;13.502;2023-04-19T17:42:56;101330.00;;;8.90
6454;BMP180;3260;52.438;13.502;2023-04-19T17:45:24;101324.00;;;8.10
6454;BMP180;3260;52.438;13.502;2023-04-19T17:47:54;101325.00;;;8.40
6454;BMP180;3260;52.438;13.502;2023-04-19T17:50:23;101319.00;;;8.90
6454;BMP180;3260;52.438;13.502;2023-04-19T17:52:53;101323.00;;;9.10
6454;BMP180;3260;52.438;13.502;2023-04-19T17:55:22;101325.00;;;9.30
6454;BMP180;3260;52.438;13.502;2023-04-19T17:57:51;101289.00;;;9.30
6454;BMP180;3260;52.438;13.502;2023-04-19T18:00:20;101322.00;;;9.10
6454;BMP180;3260;52.438;13.502;2023-04-19T18:02:49;101325.00;;;8.80
6454;BMP180;3260;52.438;13.502;2023-04-19T18:05:19;101315.00;;;8.80
6454;BMP180;3260;52.438;13.502;2023-04-19T18:07:48;101319.00;;;8.70
6454;BMP180;3260;52.438;13.502;2023-04-19T18:10:16;101322.00;;;9.00
6454;BMP180;3260;52.438;13.502;2023-04-19T18:12:45;101330.00;;;9.30
6454;BMP180;3260;52.438;13.502;2023-04-19T18:15:13;101324.00;;;9.30
6454;BMP180;3260;52.438;13.502;2023-04-19T18:17:42;101324.00;;;9.00
6454;BMP180;3260;52.438;13.502;2023-04-19T18:20:11;101324.00;;;9.10
6454;BMP180;3260;52.438;13.502;2023-04-19T18:22:42;101333.00;;;9.20
6454;BMP180;3260;52.438;13.502;2023-04-19T18:25:10;101326.00;;;8.60
6454;BMP180;3260;52.438;13.502;2023-04-19T18:27:39;101332.00;;;8.80
6454;BMP180;3260;52.438;13.502;2023-04-19T18:30:09;101324.00;;;8.90
6454;BMP180;3260;52.438;13.502;2023-04-19T18:32:38;101321.00;;;8.70
6454;BMP180;3260;52.438;13.502;2023-04-19T18:35:07;101331.00;;;9.20
6454;BMP180;3260;52.438;13.502;2023-04-19T18:37:36;101335.00;;;8.60
6454;BMP180;3260;52.438;13.502;2023-04-19T18:40:07;101324.00;;;8.80